Groningen, Netherlands
Current Conditions -  °F | °C
As of 2:55 AM on Tuesday 25 Nov 2014 (Local Time) from EHGG Reporting Station
Moderate Fog Moderate Fog  
Wind Chill: 34°   Ceiling: Unl
Heat Index: 34°   Visibility: 0.28mi
Dew Point: 34°   Wind: 2mph
Humidity: 100%   Direction: 200°SSW
Pressure: 30.3"   Gusts: NA
Location:  53.22°N, 6.56°E
Report Text: EHGG 250155Z AUTO 20002KT 0450 R23/0600 FG FEW015 01/01 Q1026
Loading
Personal Weather Stations






























Interactive Weather Map New forecast layout! Learn more

10-Day Weather Forecast

Advertisements
Track Severe Weather on mobile